Time;durP1;ratioP1;P1;durP2;ratioP2;P2;SDS_P1;SDS_P2;PMS_P1;PMS_P2;Temp;Humidity;BMP_temperature;BMP_pressure;BME280_temperature;BME280_humidity;BME280_pressure;Samples;Min_cycle;Max_cycle;Signal;HPM_P1;HPM_P2
2023/10/20 00:00:27;;;;;;;10.17;8.60;;;13.50;99.90;;;;;;5035229;28;20185;-80
2023/10/20 00:02:53;;;;;;;10.97;8.90;;;13.50;99.90;;;;;;5052917;28;20174;-81
2023/10/20 00:05:18;;;;;;;9.50;8.13;;;13.50;99.90;;;;;;5035613;28;20198;-80
2023/10/20 00:07:44;;;;;;;12.73;9.50;;;13.50;99.90;;;;;;5035311;28;20202;-80
2023/10/20 00:10:11;;;;;;;9.50;8.50;;;13.50;99.90;;;;;;5052909;28;20169;-80
2023/10/20 00:12:37;;;;;;;9.33;8.13;;;13.50;99.90;;;;;;5035182;28;20169;-80
2023/10/20 00:15:03;;;;;;;9.93;8.27;;;13.50;99.90;;;;;;5052935;28;20174;-82
2023/10/20 00:17:29;;;;;;;9.80;8.20;;;13.50;99.90;;;;;;5035064;28;20197;-80
2023/10/20 00:19:55;;;;;;;11.10;8.67;;;13.40;99.90;;;;;;5053009;28;20166;-80
2023/10/20 00:22:20;;;;;;;9.40;7.73;;;13.40;99.90;;;;;;5052705;28;20170;-80
2023/10/20 00:24:46;;;;;;;9.97;8.10;;;13.40;99.90;;;;;;5052532;28;20169;-80
2023/10/20 00:27:13;;;;;;;9.30;8.20;;;13.40;99.90;;;;;;5038014;28;20197;-80
2023/10/20 00:29:40;;;;;;;9.70;8.07;;;13.40;99.90;;;;;;5056907;28;20185;-80
2023/10/20 00:32:06;;;;;;;10.30;9.17;;;13.40;99.90;;;;;;5055880;28;20169;-80
2023/10/20 00:34:32;;;;;;;10.43;9.20;;;13.30;99.90;;;;;;5056711;28;20170;-80
2023/10/20 00:36:58;;;;;;;10.90;9.07;;;13.30;99.90;;;;;;5038735;28;20218;-80
2023/10/20 00:39:23;;;;;;;11.00;9.27;;;13.30;99.90;;;;;;5038906;28;20170;-80
2023/10/20 00:41:49;;;;;;;11.60;9.40;;;13.30;99.90;;;;;;5038202;28;20238;-80
2023/10/20 00:44:15;;;;;;;11.60;10.03;;;13.20;99.90;;;;;;5056508;28;20178;-80
2023/10/20 00:46:43;;;;;;;11.87;9.47;;;13.20;99.90;;;;;;5056152;28;20261;-80
2023/10/20 00:49:10;;;;;;;11.53;9.63;;;13.20;99.90;;;;;;5056066;28;20219;-80
2023/10/20 00:51:36;;;;;;;12.20;10.07;;;13.20;99.90;;;;;;5037812;28;20172;-82
2023/10/20 00:54:02;;;;;;;11.93;10.10;;;13.20;99.90;;;;;;5056252;28;20170;-80
2023/10/20 00:56:29;;;;;;;12.27;9.77;;;13.20;99.90;;;;;;5038203;28;20205;-80
2023/10/20 00:58:55;;;;;;;12.30;10.67;;;13.10;99.90;;;;;;5038146;28;20177;-80
2023/10/20 01:01:21;;;;;;;13.13;10.30;;;13.20;99.90;;;;;;5037837;28;20208;-80
2023/10/20 01:03:48;;;;;;;12.53;10.27;;;13.10;99.90;;;;;;5038328;28;20251;-81
2023/10/20 01:06:16;;;;;;;13.77;10.50;;;13.10;99.90;;;;;;5055997;28;20210;-74
2023/10/20 01:08:42;;;;;;;12.90;10.60;;;13.10;99.90;;;;;;5038171;28;20174;-80
2023/10/20 01:11:08;;;;;;;11.80;10.20;;;13.10;99.90;;;;;;5055438;28;20174;-80
2023/10/20 01:13:33;;;;;;;13.90;10.87;;;13.10;99.90;;;;;;5037892;28;20166;-80
2023/10/20 01:15:59;;;;;;;11.97;10.37;;;13.10;99.90;;;;;;5055714;28;20731;-80
2023/10/20 01:18:24;;;;;;;13.50;10.73;;;13.10;99.90;;;;;;5055815;28;20177;-80
2023/10/20 01:20:50;;;;;;;13.30;10.50;;;13.00;99.90;;;;;;5055772;28;20178;-80
2023/10/20 01:23:15;;;;;;;11.67;10.23;;;13.00;99.90;;;;;;5055048;28;20649;-80
2023/10/20 01:25:41;;;;;;;12.27;10.63;;;13.10;99.90;;;;;;5055906;28;20640;-82
2023/10/20 01:28:07;;;;;;;13.83;10.53;;;13.10;99.90;;;;;;5055496;28;20285;-80
2023/10/20 01:30:33;;;;;;;11.77;10.07;;;13.00;99.90;;;;;;5055168;28;20223;-81
2023/10/20 01:32:59;;;;;;;10.87;9.40;;;13.00;99.90;;;;;;5055226;28;20260;-80
2023/10/20 01:35:24;;;;;;;11.77;9.90;;;13.00;99.90;;;;;;5055561;28;20181;-80
2023/10/20 01:37:50;;;;;;;11.50;10.07;;;13.10;99.90;;;;;;5037017;28;20193;-80
2023/10/20 01:40:17;;;;;;;10.73;9.23;;;13.00;99.90;;;;;;5038114;28;20248;-80
2023/10/20 01:42:43;;;;;;;11.73;9.40;;;13.10;99.90;;;;;;5054803;28;20173;-80
2023/10/20 01:45:09;;;;;;;11.77;9.73;;;13.10;99.90;;;;;;5055351;28;20256;-80
2023/10/20 01:47:35;;;;;;;10.80;8.23;;;13.00;99.90;;;;;;5037599;28;20190;-80
2023/10/20 01:50:01;;;;;;;13.03;9.03;;;13.00;99.90;;;;;;5055173;28;20269;-80
2023/10/20 01:52:26;;;;;;;11.13;9.27;;;13.00;99.90;;;;;;5054613;28;20169;-80
2023/10/20 01:54:52;;;;;;;9.70;8.40;;;13.00;99.90;;;;;;5055030;28;20581;-80
2023/10/20 01:57:17;;;;;;;9.60;8.07;;;13.00;99.90;;;;;;5037469;28;20251;-80
2023/10/20 01:59:43;;;;;;;10.20;8.30;;;13.00;99.90;;;;;;5054831;28;20723;-80
2023/10/20 02:02:09;;;;;;;11.73;8.70;;;12.90;99.90;;;;;;5036622;28;20689;-80
2023/10/20 02:04:34;;;;;;;9.80;8.80;;;12.90;99.90;;;;;;5054763;28;20170;-80
2023/10/20 02:07:00;;;;;;;10.77;9.30;;;12.90;99.90;;;;;;5036928;28;20214;-80
2023/10/20 02:09:25;;;;;;;11.30;9.63;;;13.00;99.90;;;;;;5037421;28;20184;-80
2023/10/20 02:11:52;;;;;;;11.03;9.80;;;12.90;99.90;;;;;;5036555;28;20214;-80
2023/10/20 02:14:17;;;;;;;11.07;9.93;;;13.00;99.90;;;;;;5054667;28;20177;-80
2023/10/20 02:16:43;;;;;;;12.00;9.93;;;13.00;99.90;;;;;;5054426;28;20201;-80
2023/10/20 02:19:10;;;;;;;12.90;9.80;;;13.00;99.90;;;;;;5036721;28;20264;-80
2023/10/20 02:21:36;;;;;;;10.17;9.00;;;13.00;99.90;;;;;;5036073;28;20173;-80
2023/10/20 02:24:02;;;;;;;10.33;8.97;;;12.90;99.90;;;;;;5036739;28;20181;-80
2023/10/20 02:26:29;;;;;;;12.40;9.57;;;13.00;99.90;;;;;;5036365;28;20304;-80
2023/10/20 02:28:54;;;;;;;11.03;9.07;;;12.80;99.90;;;;;;5054316;28;20273;-80
2023/10/20 02:31:20;;;;;;;9.50;8.20;;;12.90;99.90;;;;;;5053835;28;20205;-80
2023/10/20 02:33:46;;;;;;;10.47;8.67;;;12.80;99.90;;;;;;5054063;28;20176;-80
2023/10/20 02:36:17;;;;;;;10.03;8.97;;;12.80;99.90;;;;;;5054287;28;20189;-80
2023/10/20 02:38:43;;;;;;;11.07;8.80;;;12.70;99.90;;;;;;5036727;28;20174;-80
2023/10/20 02:41:08;;;;;;;10.47;8.97;;;12.80;99.90;;;;;;5035893;28;20196;-80
2023/10/20 02:43:34;;;;;;;10.77;9.27;;;12.80;99.90;;;;;;5054249;28;20176;-80
2023/10/20 02:46:00;;;;;;;11.60;9.60;;;12.80;99.90;;;;;;5036629;28;20641;-80
2023/10/20 02:48:27;;;;;;;10.63;9.13;;;12.80;99.90;;;;;;5054663;28;20203;-80
2023/10/20 02:50:52;;;;;;;14.40;10.27;;;12.80;99.90;;;;;;5035234;28;20657;-80
2023/10/20 02:53:18;;;;;;;12.30;10.13;;;12.80;99.90;;;;;;5035943;28;20178;-80
2023/10/20 02:55:44;;;;;;;15.87;9.80;;;12.80;99.90;;;;;;5054386;28;20173;-80
2023/10/20 02:58:13;;;;;;;12.27;9.70;;;12.80;99.90;;;;;;5036464;28;20177;-80
2023/10/20 03:00:42;;;;;;;9.57;8.10;;;12.80;99.90;;;;;;5053822;28;20205;-79
2023/10/20 03:03:09;;;;;;;9.67;8.43;;;12.70;99.90;;;;;;5035327;28;20197;-81
2023/10/20 03:05:35;;;;;;;10.27;8.03;;;12.70;99.90;;;;;;5053593;28;20205;-80
2023/10/20 03:08:01;;;;;;;10.37;8.27;;;12.70;99.90;;;;;;5035969;28;20189;-80
2023/10/20 03:10:27;;;;;;;11.40;8.27;;;12.70;99.90;;;;;;5047646;28;20173;-80
2023/10/20 03:12:52;;;;;;;10.10;8.10;;;12.70;99.90;;;;;;5053208;28;20177;-80
2023/10/20 03:15:18;;;;;;;9.83;7.40;;;12.70;99.90;;;;;;5036069;28;20190;-80
2023/10/20 03:17:43;;;;;;;7.80;6.80;;;12.70;99.90;;;;;;5035749;28;20194;-80
2023/10/20 03:20:14;;;;;;;7.17;6.03;;;12.80;99.90;;;;;;5035878;28;20184;-80
2023/10/20 03:22:43;;;;;;;8.07;6.50;;;12.80;99.90;;;;;;5053099;28;20558;-80
2023/10/20 03:25:10;;;;;;;7.00;5.70;;;13.00;99.90;;;;;;5035958;28;20268;-80
2023/10/20 03:27:37;;;;;;;7.57;6.23;;;13.00;99.90;;;;;;5055801;28;20574;-80
2023/10/20 03:30:05;;;;;;;6.73;5.83;;;13.00;99.90;;;;;;5053683;28;20181;-80
2023/10/20 03:32:31;;;;;;;7.10;5.77;;;13.10;99.90;;;;;;5052952;28;20185;-80
2023/10/20 03:34:57;;;;;;;7.13;5.87;;;13.10;99.90;;;;;;5035817;28;20173;-80
2023/10/20 03:37:22;;;;;;;6.30;5.70;;;13.00;99.90;;;;;;5035976;28;20197;-80
2023/10/20 03:39:49;;;;;;;9.03;5.50;;;13.00;99.90;;;;;;5036127;28;20178;-80
2023/10/20 03:42:14;;;;;;;6.67;5.80;;;12.90;99.90;;;;;;5053133;28;20189;-80
2023/10/20 03:44:42;;;;;;;6.80;6.07;;;12.90;99.90;;;;;;5053899;28;20174;-80
2023/10/20 03:47:08;;;;;;;7.07;6.20;;;12.90;99.90;;;;;;5035338;28;20617;-80
2023/10/20 03:49:35;;;;;;;8.50;6.47;;;12.90;99.90;;;;;;5053808;28;20181;-80
2023/10/20 03:52:01;;;;;;;7.10;5.97;;;12.90;99.90;;;;;;5035450;28;20260;-80
2023/10/20 03:54:30;;;;;;;7.63;6.87;;;12.90;99.90;;;;;;5053721;28;20550;-80
2023/10/20 03:56:57;;;;;;;8.10;7.30;;;12.80;99.90;;;;;;5053373;28;20285;-80
2023/10/20 03:59:24;;;;;;;9.67;7.70;;;12.80;99.90;;;;;;5053391;28;20177;-80
2023/10/20 04:01:51;;;;;;;7.67;6.90;;;12.80;99.90;;;;;;5055660;28;20198;-80
2023/10/20 04:04:17;;;;;;;8.73;7.63;;;12.80;99.90;;;;;;5057572;28;20174;-80
2023/10/20 04:06:44;;;;;;;9.10;8.10;;;12.80;99.90;;;;;;5039704;28;20213;-80
2023/10/20 04:09:10;;;;;;;8.57;7.67;;;12.80;99.90;;;;;;5056936;28;20659;-80
2023/10/20 04:11:36;;;;;;;9.23;7.93;;;12.80;99.90;;;;;;5038986;28;20170;-80
2023/10/20 04:14:06;;;;;;;8.00;7.20;;;12.80;99.90;;;;;;5056815;28;20714;-80
2023/10/20 04:16:41;;;;;;;8.63;7.50;;;12.80;99.90;;;;;;5056878;28;20247;-82
2023/10/20 04:19:12;;;;;;;9.53;7.63;;;12.80;99.90;;;;;;5039122;28;20165;-80
2023/10/20 04:21:39;;;;;;;9.83;7.07;;;12.80;99.90;;;;;;5060762;28;20227;-80
2023/10/20 04:24:09;;;;;;;9.23;7.00;;;12.90;99.90;;;;;;5058153;28;20723;-80
2023/10/20 04:26:36;;;;;;;8.97;7.53;;;12.80;99.90;;;;;;5056532;28;20645;-80
2023/10/20 05:01:30;;;;;;;9.87;8.03;;;12.70;99.90;;;;;;5055562;28;20220;-80
2023/10/20 05:04:03;;;;;;;9.60;6.83;;;12.60;99.90;;;;;;5067083;28;20558;-80
2023/10/20 05:06:40;;;;;;;7.03;6.10;;;12.60;99.90;;;;;;5056003;28;20267;-81
2023/10/20 05:09:09;;;;;;;6.37;5.70;;;12.60;99.90;;;;;;5062740;28;20234;-80
2023/10/20 05:11:34;;;;;;;6.90;6.20;;;12.70;99.90;;;;;;5036944;28;20165;-80
2023/10/20 05:14:00;;;;;;;7.53;6.73;;;12.70;99.90;;;;;;5036313;28;20605;-80
2023/10/20 05:16:28;;;;;;;8.63;6.53;;;12.70;99.90;;;;;;5054726;28;20266;-80
2023/10/20 05:18:55;;;;;;;9.13;8.10;;;12.70;99.90;;;;;;5037297;28;20170;-81
2023/10/20 05:21:21;;;;;;;6.77;5.80;;;12.70;99.90;;;;;;5037981;28;20200;-79
2023/10/20 05:23:49;;;;;;;9.93;8.93;;;12.80;99.90;;;;;;5059262;28;20177;-80
2023/10/20 05:26:15;;;;;;;7.60;6.80;;;13.10;99.90;;;;;;5054603;28;20209;-79
2023/10/20 05:28:41;;;;;;;10.00;8.27;;;13.20;99.90;;;;;;5041848;28;20260;-79
2023/10/20 05:31:07;;;;;;;10.57;8.70;;;13.00;99.90;;;;;;5063722;28;20723;-80
2023/10/20 05:33:33;;;;;;;9.47;8.03;;;13.00;99.90;;;;;;5055349;28;20208;-80
2023/10/20 05:36:05;;;;;;;9.40;7.90;;;12.80;99.90;;;;;;5037723;28;20194;-79
2023/10/20 05:38:31;;;;;;;10.37;8.77;;;12.90;99.90;;;;;;5054854;28;20552;-81
2023/10/20 05:41:00;;;;;;;11.07;8.73;;;12.90;99.90;;;;;;5036687;28;20592;-81
2023/10/20 05:43:26;;;;;;;11.27;8.73;;;12.90;99.90;;;;;;5053974;28;20642;-80
2023/10/20 05:45:51;;;;;;;12.27;8.50;;;12.90;99.90;;;;;;5054132;28;20205;-79
2023/10/20 05:48:17;;;;;;;10.40;8.50;;;12.90;99.90;;;;;;5054480;28;20201;-81
2023/10/20 05:50:43;;;;;;;12.03;8.63;;;12.80;99.90;;;;;;5053921;28;20170;-82
2023/10/20 05:53:10;;;;;;;10.93;8.93;;;12.80;99.90;;;;;;5035661;28;20174;-82
2023/10/20 05:55:36;;;;;;;10.33;8.80;;;12.70;99.90;;;;;;5053752;28;20201;-82
2023/10/20 05:58:02;;;;;;;9.40;8.40;;;12.70;99.90;;;;;;5053534;28;20200;-82
2023/10/20 06:00:28;;;;;;;9.63;8.63;;;12.80;99.90;;;;;;5053793;28;20173;-82
2023/10/20 06:02:54;;;;;;;9.77;8.47;;;12.90;99.90;;;;;;5035303;28;20181;-81
2023/10/20 06:05:20;;;;;;;10.13;8.37;;;12.80;99.90;;;;;;5053747;28;20656;-81
2023/10/20 06:07:48;;;;;;;10.07;8.50;;;12.70;99.90;;;;;;5053579;28;20206;-81
2023/10/20 06:10:16;;;;;;;13.83;10.83;;;12.70;99.90;;;;;;5053478;28;20723;-81
2023/10/20 06:12:42;;;;;;;10.37;9.10;;;12.60;99.90;;;;;;5053145;28;20173;-82
2023/10/20 06:15:08;;;;;;;13.60;10.37;;;12.60;99.90;;;;;;5054216;28;20173;-80
2023/10/20 06:17:34;;;;;;;10.70;8.93;;;12.60;99.90;;;;;;5036171;28;20589;-80
2023/10/20 06:20:06;;;;;;;12.77;10.60;;;12.60;99.90;;;;;;5035981;28;20701;-80
2023/10/20 06:22:32;;;;;;;10.53;8.90;;;12.60;99.90;;;;;;5053172;28;20177;-80
2023/10/20 06:24:59;;;;;;;14.53;12.20;;;12.60;99.90;;;;;;5053324;28;20192;-81
2023/10/20 06:27:25;;;;;;;11.90;8.97;;;12.60;99.90;;;;;;5053295;28;20255;-80
2023/10/20 06:30:01;;;;;;;13.03;10.03;;;12.50;99.90;;;;;;5053574;28;20190;-79
2023/10/20 06:32:32;;;;;;;12.13;9.10;;;12.50;99.90;;;;;;5035187;28;20271;-79
2023/10/20 06:35:00;;;;;;;11.97;10.00;;;12.50;99.90;;;;;;5042808;28;20177;-80
2023/10/20 06:37:35;;;;;;;10.50;9.17;;;12.50;99.90;;;;;;5065375;28;20185;-80
2023/10/20 06:40:03;;;;;;;10.47;8.13;;;12.60;99.90;;;;;;5073157;28;20164;-80
2023/10/20 06:42:29;;;;;;;9.73;8.40;;;12.60;99.90;;;;;;5073528;28;20176;-80
2023/10/20 06:44:55;;;;;;;9.13;8.13;;;12.60;99.90;;;;;;5072928;28;20181;-80
2023/10/20 06:47:21;;;;;;;9.87;8.73;;;12.60;99.90;;;;;;5035346;28;20198;-80
2023/10/20 06:49:47;;;;;;;21.00;14.67;;;12.60;99.90;;;;;;5035647;28;20560;-80
2023/10/20 06:52:17;;;;;;;10.33;8.97;;;12.60;99.90;;;;;;5034657;28;20166;-80
2023/10/20 06:54:46;;;;;;;24.87;17.27;;;12.50;99.90;;;;;;5053217;28;20196;-80
2023/10/20 06:57:13;;;;;;;13.03;9.80;;;12.60;99.90;;;;;;5053163;28;20201;-80
2023/10/20 06:59:39;;;;;;;11.47;9.50;;;12.60;99.90;;;;;;5035250;28;20180;-80
2023/10/20 07:02:05;;;;;;;9.67;8.67;;;12.60;99.90;;;;;;5052547;28;20268;-80
2023/10/20 07:04:31;;;;;;;11.13;9.07;;;12.60;99.90;;;;;;5048779;28;20189;-82
2023/10/20 07:06:57;;;;;;;11.07;9.13;;;12.60;99.90;;;;;;5062111;22;20233;-79
2023/10/20 07:09:23;;;;;;;14.17;11.73;;;12.60;99.90;;;;;;5035652;28;20173;-80
2023/10/20 07:11:49;;;;;;;9.40;8.40;;;12.60;99.90;;;;;;5052759;28;20309;-80
2023/10/20 07:14:14;;;;;;;12.70;8.37;;;12.50;99.90;;;;;;5035860;28;20174;-79
2023/10/20 07:16:40;;;;;;;9.07;7.50;;;12.60;99.90;;;;;;5035277;28;20204;-80
2023/10/20 07:19:06;;;;;;;10.60;8.50;;;12.60;99.90;;;;;;5053278;28;20170;-79
2023/10/20 07:21:32;;;;;;;11.10;9.73;;;12.60;99.90;;;;;;5052947;28;20219;-79
2023/10/20 07:23:57;;;;;;;12.70;10.00;;;12.60;99.90;;;;;;5053706;28;20178;-79
2023/10/20 07:26:24;;;;;;;12.00;9.07;;;12.50;99.90;;;;;;5053053;28;20225;-79
2023/10/20 07:28:50;;;;;;;9.63;7.83;;;12.50;99.90;;;;;;5053923;28;20181;-79
2023/10/20 07:31:21;;;;;;;8.33;7.30;;;12.50;99.90;;;;;;5034890;28;20170;-79
2023/10/20 07:33:49;;;;;;;8.97;7.23;;;12.50;99.90;;;;;;5053426;28;20149;-79
2023/10/20 07:36:15;;;;;;;9.23;7.60;;;12.40;99.90;;;;;;5037303;28;20173;-79
2023/10/20 07:38:42;;;;;;;9.00;6.83;;;12.50;99.90;;;;;;5039767;28;20181;-79
2023/10/20 07:41:11;;;;;;;9.07;8.10;;;12.50;99.90;;;;;;5039073;28;20559;-78
2023/10/20 07:43:38;;;;;;;7.90;7.03;;;12.40;99.90;;;;;;5057769;28;20674;-79
2023/10/20 07:46:03;;;;;;;7.67;6.70;;;12.40;99.90;;;;;;5039182;28;20204;-79
2023/10/20 07:48:32;;;;;;;9.70;6.77;;;12.50;99.90;;;;;;5039668;28;20186;-79
2023/10/20 07:50:59;;;;;;;7.90;6.67;;;12.50;99.90;;;;;;5057158;28;20166;-79
2023/10/20 07:53:25;;;;;;;7.73;6.90;;;12.50;99.90;;;;;;5056861;28;20168;-79
2023/10/20 07:55:51;;;;;;;7.10;6.10;;;12.50;99.90;;;;;;5039224;28;20178;-80
2023/10/20 07:58:16;;;;;;;7.83;6.07;;;12.50;99.90;;;;;;5056928;28;20288;-79
2023/10/20 08:00:42;;;;;;;31.83;21.77;;;12.50;99.90;;;;;;5039096;28;20180;-79
2023/10/20 08:03:10;;;;;;;10.67;8.33;;;12.60;99.90;;;;;;5038520;28;20239;-79
2023/10/20 08:05:37;;;;;;;11.30;8.97;;;12.60;99.90;;;;;;5057080;28;20201;-79
2023/10/20 08:08:04;;;;;;;15.37;13.23;;;12.60;99.90;;;;;;5038650;28;20206;-79
2023/10/20 08:10:30;;;;;;;9.37;7.13;;;12.60;99.90;;;;;;5038887;28;20232;-79
2023/10/20 08:12:56;;;;;;;9.13;7.40;;;12.60;99.90;;;;;;5056056;28;20545;-79
2023/10/20 08:15:23;;;;;;;8.57;6.13;;;12.70;99.90;;;;;;5038950;28;20177;-79
2023/10/20 08:17:50;;;;;;;8.17;6.03;;;12.70;99.90;;;;;;5056853;28;20273;-79
2023/10/20 08:20:16;;;;;;;7.23;5.70;;;12.70;99.90;;;;;;5039042;28;20170;-79
2023/10/20 08:22:43;;;;;;;6.63;5.90;;;12.70;99.90;;;;;;5041966;28;20170;-79
2023/10/20 08:25:09;;;;;;;7.80;5.87;;;12.70;99.90;;;;;;5056335;28;20177;-79
2023/10/20 08:27:34;;;;;;;7.40;6.00;;;12.80;99.90;;;;;;5056777;28;20401;-79
2023/10/20 08:30:00;;;;;;;6.27;5.67;;;12.80;99.90;;;;;;5057099;28;20177;-79
2023/10/20 08:32:25;;;;;;;6.40;5.50;;;12.80;99.90;;;;;;5056021;28;20170;-79
2023/10/20 08:34:51;;;;;;;9.10;6.07;;;12.80;99.90;;;;;;5036467;28;20208;-80
2023/10/20 08:37:17;;;;;;;6.63;5.90;;;12.90;99.90;;;;;;5039688;28;20232;-79
2023/10/20 08:39:46;;;;;;;7.97;6.57;;;12.80;99.90;;;;;;5030281;28;20200;-79
2023/10/20 08:42:16;;;;;;;8.43;6.90;;;12.90;99.90;;;;;;5055228;28;20178;-80
2023/10/20 08:44:43;;;;;;;7.37;6.30;;;12.80;99.90;;;;;;5055920;28;20519;-80
2023/10/20 08:47:12;;;;;;;6.37;5.63;;;12.90;99.90;;;;;;5037326;28;20206;-80
2023/10/20 08:49:39;;;;;;;7.67;6.63;;;13.00;99.90;;;;;;5049891;28;20202;-80
2023/10/20 08:52:10;;;;;;;7.40;6.37;;;13.00;99.90;;;;;;5045054;28;20253;-79
2023/10/20 08:54:36;;;;;;;7.60;6.67;;;13.10;99.90;;;;;;5056005;28;20532;-80
2023/10/20 08:57:02;;;;;;;7.10;6.40;;;13.10;99.90;;;;;;5044313;28;20197;-80
2023/10/20 08:59:28;;;;;;;6.77;6.03;;;13.10;99.90;;;;;;5055359;28;20238;-79
2023/10/20 09:01:54;;;;;;;7.03;6.33;;;13.10;99.90;;;;;;5037273;28;20178;-80
2023/10/20 09:04:26;;;;;;;6.73;5.60;;;13.10;99.90;;;;;;5042798;28;20189;-79
2023/10/20 09:06:52;;;;;;;6.57;5.80;;;13.10;99.90;;;;;;5037425;28;20216;-79
2023/10/20 09:09:19;;;;;;;7.70;6.20;;;13.20;99.90;;;;;;5037963;28;20199;-80
2023/10/20 09:11:45;;;;;;;7.57;5.60;;;13.20;99.90;;;;;;5030256;28;20178;-79
2023/10/20 09:14:14;;;;;;;8.87;5.87;;;13.30;99.90;;;;;;5036844;28;20170;-79
2023/10/20 09:16:41;;;;;;;21.33;16.90;;;13.40;99.90;;;;;;5049120;28;20198;-80
2023/10/20 09:19:11;;;;;;;19.10;14.27;;;13.40;99.90;;;;;;5035411;28;20689;-80
2023/10/20 09:21:39;;;;;;;11.50;8.60;;;13.30;99.90;;;;;;5053941;28;20174;-80
2023/10/20 09:24:07;;;;;;;9.97;8.80;;;13.30;99.90;;;;;;5054669;28;20185;-79
2023/10/20 09:26:38;;;;;;;8.60;7.07;;;13.40;99.90;;;;;;5055843;28;20190;-80
2023/10/20 09:29:05;;;;;;;8.80;7.63;;;13.30;99.90;;;;;;5036139;28;20285;-81
2023/10/20 09:31:31;;;;;;;7.47;6.47;;;13.30;99.90;;;;;;5035644;28;20185;-83
2023/10/20 09:33:57;;;;;;;7.47;6.67;;;13.40;99.90;;;;;;5054156;28;20247;-82
2023/10/20 09:36:23;;;;;;;9.63;7.63;;;13.50;99.90;;;;;;5053900;28;20193;-81
2023/10/20 09:38:54;;;;;;;7.63;6.10;;;13.50;99.90;;;;;;5054082;28;20182;-82
2023/10/20 09:41:24;;;;;;;8.07;6.80;;;13.50;99.90;;;;;;5043487;28;20247;-81
2023/10/20 09:43:52;;;;;;;9.40;6.80;;;13.50;99.90;;;;;;5045038;28;20231;-80
2023/10/20 09:46:33;;;;;;;7.03;5.87;;;13.50;99.90;;;;;;5036561;28;20200;-84
2023/10/20 09:49:00;;;;;;;9.70;8.00;;;13.50;99.90;;;;;;5053888;28;20178;-84
2023/10/20 09:51:27;;;;;;;7.33;4.90;;;13.60;99.90;;;;;;5053598;28;20170;-84
2023/10/20 09:53:54;;;;;;;8.43;7.60;;;13.80;99.90;;;;;;5053689;28;20641;-81
2023/10/20 09:56:21;;;;;;;7.03;5.87;;;13.90;99.90;;;;;;5032990;28;20174;-80
2023/10/20 09:58:46;;;;;;;7.13;5.87;;;13.90;99.90;;;;;;5015381;28;20179;-80
2023/10/20 10:01:15;;;;;;;6.47;5.80;;;13.90;99.90;;;;;;5032274;28;20178;-80
2023/10/20 10:03:47;;;;;;;5.73;5.13;;;13.90;99.90;;;;;;5014975;28;20194;-80
2023/10/20 10:06:19;;;;;;;6.33;5.23;;;13.90;99.90;;;;;;5032816;28;20258;-80
2023/10/20 10:08:44;;;;;;;8.27;7.00;;;13.90;99.90;;;;;;5015339;28;20213;-80
2023/10/20 10:11:26;;;;;;;8.63;6.47;;;13.90;99.90;;;;;;5014561;28;20202;-80
2023/10/20 10:13:53;;;;;;;9.83;5.97;;;13.90;99.90;;;;;;5032861;28;20174;-80
2023/10/20 10:16:20;;;;;;;8.03;6.60;;;14.00;99.90;;;;;;5016374;28;20646;-80
2023/10/20 10:18:46;;;;;;;7.57;5.73;;;14.00;99.90;;;;;;5033605;28;20650;-81
2023/10/20 10:21:27;;;;;;;9.93;8.90;;;14.00;99.90;;;;;;5033507;28;20262;-80
2023/10/20 10:24:13;;;;;;;9.53;7.50;;;14.10;99.90;;;;;;5016641;28;20178;-80
2023/10/20 10:26:59;;;;;;;6.43;5.70;;;14.20;99.90;;;;;;5033718;28;20293;-81
2023/10/20 10:30:05;;;;;;;5.13;4.00;;;14.20;99.90;;;;;;5016436;28;20170;-81
2023/10/20 10:32:32;;;;;;;6.87;4.37;;;14.20;99.90;;;;;;5015179;28;20174;-80
2023/10/20 10:34:58;;;;;;;5.93;5.00;;;14.20;99.90;;;;;;5016067;28;20178;-81
2023/10/20 10:37:35;;;;;;;7.57;4.93;;;14.20;99.90;;;;;;5016057;28;20201;-81
2023/10/20 10:40:13;;;;;;;6.67;5.40;;;14.20;99.90;;;;;;5016011;28;20232;-80
2023/10/20 10:42:43;;;;;;;7.17;5.40;;;14.20;99.90;;;;;;5015190;28;20184;-81
2023/10/20 10:45:23;;;;;;;5.87;4.93;;;14.30;99.90;;;;;;5016337;28;20180;-81
2023/10/20 10:47:50;;;;;;;5.77;4.97;;;14.30;99.90;;;;;;5033453;28;20205;-80
2023/10/20 10:50:16;;;;;;;5.60;5.00;;;14.20;99.90;;;;;;5033588;28;20638;-80
2023/10/20 10:52:43;;;;;;;5.77;5.00;;;14.20;99.90;;;;;;5015273;28;20552;-81
2023/10/20 10:55:13;;;;;;;6.03;4.50;;;14.20;99.90;;;;;;5033169;28;20182;-80
2023/10/20 10:57:40;;;;;;;5.87;4.40;;;14.20;99.90;;;;;;5015637;28;20221;-81
2023/10/20 11:00:07;;;;;;;4.57;4.17;;;14.20;99.90;;;;;;5015359;28;20228;-80
2023/10/20 11:02:33;;;;;;;5.33;4.50;;;14.20;99.90;;;;;;5032771;28;20196;-80
2023/10/20 11:05:00;;;;;;;5.83;4.97;;;14.20;99.90;;;;;;5033368;28;20224;-81
2023/10/20 11:07:26;;;;;;;7.23;4.90;;;14.30;99.90;;;;;;5032971;28;20623;-81
2023/10/20 11:09:52;;;;;;;5.83;4.67;;;14.30;99.90;;;;;;5033050;28;20167;-81
2023/10/20 11:12:21;;;;;;;6.97;4.27;;;14.40;99.90;;;;;;5014135;28;20198;-78
2023/10/20 11:14:47;;;;;;;4.57;4.17;;;14.40;99.90;;;;;;5033422;28;20185;-80
2023/10/20 11:17:14;;;;;;;6.00;4.47;;;14.50;99.90;;;;;;5032950;28;20194;-81
2023/10/20 11:19:40;;;;;;;5.23;4.73;;;14.60;99.90;;;;;;5033393;28;20182;-81
2023/10/20 11:22:17;;;;;;;5.30;4.60;;;14.70;99.90;;;;;;5032454;28;20261;-81
2023/10/20 11:24:42;;;;;;;5.23;4.73;;;14.80;99.90;;;;;;5015106;28;20177;-81
2023/10/20 11:27:08;;;;;;;5.77;4.87;;;14.90;99.90;;;;;;5033152;28;20229;-81
2023/10/20 11:29:36;;;;;;;4.93;4.30;;;14.90;99.90;;;;;;5033005;28;20543;-81
2023/10/20 11:32:07;;;;;;;5.90;4.03;;;15.00;99.90;;;;;;5032233;28;20174;-81
2023/10/20 11:34:36;;;;;;;6.07;4.43;;;15.00;99.90;;;;;;5015280;28;20185;-81
2023/10/20 11:37:03;;;;;;;5.03;4.40;;;15.00;99.90;;;;;;5015064;28;20666;-81
2023/10/20 11:39:30;;;;;;;5.50;4.70;;;15.10;99.90;;;;;;5032496;28;20277;-81
2023/10/20 11:41:56;;;;;;;5.77;4.43;;;15.20;99.90;;;;;;5015146;28;20204;-81
2023/10/20 11:44:24;;;;;;;7.07;5.33;;;15.30;99.90;;;;;;5032771;28;20206;-81
2023/10/20 11:46:53;;;;;;;5.10;4.60;;;15.40;99.90;;;;;;5015034;28;20276;-81
2023/10/20 11:49:24;;;;;;;4.70;4.07;;;15.50;99.90;;;;;;5032715;28;20266;-80
2023/10/20 11:51:50;;;;;;;5.03;4.63;;;15.60;99.90;;;;;;5032337;28;20166;-81
2023/10/20 11:54:16;;;;;;;4.07;3.67;;;15.60;99.90;;;;;;5015095;28;20181;-81
2023/10/20 11:56:42;;;;;;;6.10;3.80;;;15.70;99.90;;;;;;5015255;28;20198;-81
2023/10/20 11:59:09;;;;;;;4.20;3.80;;;15.80;99.90;;;;;;5032621;28;20240;-81
2023/10/20 12:01:35;;;;;;;4.63;4.13;;;16.10;99.90;;;;;;5032292;28;20205;-81
2023/10/20 12:04:05;;;;;;;5.10;4.00;;;16.50;99.90;;;;;;5015172;28;20185;-81
2023/10/20 12:06:31;;;;;;;5.10;3.90;;;16.90;99.90;;;;;;5032341;28;20251;-81
2023/10/20 12:08:57;;;;;;;4.93;4.40;;;17.20;99.90;;;;;;5015163;28;20186;-80
2023/10/20 12:11:23;;;;;;;4.87;4.37;;;17.20;99.90;;;;;;5014738;28;20175;-80
2023/10/20 12:13:48;;;;;;;4.90;4.40;;;17.00;99.90;;;;;;5032682;28;20174;-81
2023/10/20 12:16:15;;;;;;;5.67;4.37;;;16.90;99.90;;;;;;5032971;28;20183;-81
2023/10/20 12:18:44;;;;;;;5.07;4.57;;;16.70;99.90;;;;;;5032336;28;20181;-81
2023/10/20 12:21:10;;;;;;;5.50;4.90;;;16.60;99.90;;;;;;5032011;28;20189;-81
2023/10/20 12:23:36;;;;;;;7.50;5.07;;;16.40;99.90;;;;;;5036202;28;20178;-80
2023/10/20 12:26:03;;;;;;;6.23;4.87;;;16.30;99.90;;;;;;5018457;28;20252;-82
2023/10/20 12:28:28;;;;;;;5.67;4.97;;;16.30;99.90;;;;;;5026290;28;20197;-81
2023/10/20 12:30:54;;;;;;;5.73;4.70;;;16.40;99.90;;;;;;5038165;28;20231;-81
2023/10/20 12:33:19;;;;;;;5.80;4.73;;;16.90;99.90;;;;;;5037508;28;20176;-81
2023/10/20 12:35:45;;;;;;;5.33;4.50;;;16.90;99.90;;;;;;5055806;28;20211;-81
2023/10/20 12:38:12;;;;;;;4.77;4.37;;;16.90;99.90;;;;;;5055783;28;20220;-81
2023/10/20 12:40:41;;;;;;;5.00;4.50;;;16.80;99.90;;;;;;5055870;28;20178;-78
2023/10/20 12:43:10;;;;;;;5.27;4.70;;;16.60;99.90;;;;;;5055413;28;20177;-81
2023/10/20 12:45:38;;;;;;;5.30;4.50;;;16.50;99.90;;;;;;5055551;28;20192;-78
2023/10/20 12:48:05;;;;;;;5.57;4.70;;;16.40;99.90;;;;;;5037448;28;20236;-82
2023/10/20 12:50:32;;;;;;;5.50;4.90;;;16.50;99.90;;;;;;5045709;28;20208;-80
2023/10/20 12:52:59;;;;;;;5.33;4.83;;;16.50;99.90;;;;;;5044241;28;20182;-81
2023/10/20 12:55:26;;;;;;;5.67;5.00;;;16.40;99.90;;;;;;5055730;28;20174;-81
2023/10/20 12:57:52;;;;;;;5.10;4.60;;;16.40;99.90;;;;;;5051831;28;20205;-82
2023/10/20 13:00:18;;;;;;;5.37;4.77;;;16.40;99.90;;;;;;5053281;28;20276;-81
2023/10/20 13:02:45;;;;;;;5.13;4.63;;;16.40;99.90;;;;;;5046332;28;20650;-80
2023/10/20 13:05:11;;;;;;;7.37;5.60;;;16.30;99.90;;;;;;5029946;28;20685;-80
2023/10/20 13:07:37;;;;;;;6.00;5.50;;;16.20;99.90;;;;;;5042023;28;20229;-79
2023/10/20 13:10:03;;;;;;;5.87;5.27;;;16.20;99.90;;;;;;5053450;28;20182;-81
2023/10/20 13:12:29;;;;;;;6.70;6.00;;;16.10;99.90;;;;;;5045261;28;20170;-80
2023/10/20 13:14:56;;;;;;;6.77;6.10;;;16.00;99.90;;;;;;5055376;28;20639;-81